Terminal Aerodrome Forecast
Issued by NWS Omaha/Valley, NE

Home | Current Version | Previous Version | Graphics & Text | Print | Product List | Glossary On
Versions: 1 2 3 4 5 6 7 8 9 10 11 12 13 14 15 16 17 18 19 20 21 22 23 24 25 26 27 28 29 30
000
FTUS43 KOAX 022324
TAFOFK
TAF
KOFK 022324Z 0300/0324 16018G23KT P6SM BKN060
     FM030600 17015KT P6SM BKN012
      TEMPO 0308/0310 3SM -FZDZ BKN009
     FM031000 19010KT 2SM -FZDZ OVC009
      TEMPO 0310/0312 -FZRAPL
     FM031200 24007KT 4SM BR OVC009
      TEMPO 0312/0314 3SM -SN OVC007
     FM031500 33023G31KT P6SM OVC015=

USA.gov is the U.S. government's official web portal to all federal, state and local government web resources and services.